sensor_id;sensor_type;location;lat;lon;timestamp;pressure;altitude;pressure_sealevel;temperature;humidity
70488;BME280;57976;48.174;16.370;2023-06-24T00:00:27;99557.17;;;19.01;82.65
70488;BME280;57976;48.174;16.370;2023-06-24T00:02:31;99564.14;;;19.00;82.81
70488;BME280;57976;48.174;16.370;2023-06-24T00:04:36;99565.46;;;18.99;82.84
70488;BME280;57976;48.174;16.370;2023-06-24T00:06:42;99580.67;;;18.97;82.85
70488;BME280;57976;48.174;16.370;2023-06-24T00:08:50;99575.17;;;18.94;82.85
70488;BME280;57976;48.174;16.370;2023-06-24T00:10:55;99586.83;;;18.93;82.75
70488;BME280;57976;48.174;16.370;2023-06-24T00:13:00;99564.21;;;18.90;82.89
70488;BME280;57976;48.174;16.370;2023-06-24T00:15:06;99565.77;;;18.89;82.92
70488;BME280;57976;48.174;16.370;2023-06-24T00:17:11;99569.84;;;18.88;83.09
70488;BME280;57976;48.174;16.370;2023-06-24T00:19:18;99570.58;;;18.86;83.24
70488;BME280;57976;48.174;16.370;2023-06-24T00:21:23;99573.05;;;18.85;83.21
70488;BME280;57976;48.174;16.370;2023-06-24T00:23:28;99573.36;;;18.84;83.25
70488;BME280;57976;48.174;16.370;2023-06-24T00:25:34;99565.09;;;18.84;83.34
70488;BME280;57976;48.174;16.370;2023-06-24T00:27:40;99556.86;;;18.82;83.30
70488;BME280;57976;48.174;16.370;2023-06-24T00:29:46;99560.11;;;18.80;83.51
70488;BME280;57976;48.174;16.370;2023-06-24T00:31:51;99568.93;;;18.77;83.76
70488;BME280;57976;48.174;16.370;2023-06-24T00:33:56;99571.34;;;18.75;83.96
70488;BME280;57976;48.174;16.370;2023-06-24T00:36:02;99574.73;;;18.74;84.20
70488;BME280;57976;48.174;16.370;2023-06-24T00:38:07;99584.51;;;18.75;84.31
70488;BME280;57976;48.174;16.370;2023-06-24T00:40:13;99582.48;;;18.73;84.52
70488;BME280;57976;48.174;16.370;2023-06-24T00:42:18;99570.73;;;18.71;84.62
70488;BME280;57976;48.174;16.370;2023-06-24T00:44:26;99576.61;;;18.71;84.75
70488;BME280;57976;48.174;16.370;2023-06-24T00:46:30;99569.24;;;18.69;84.89
70488;BME280;57976;48.174;16.370;2023-06-24T00:48:35;99568.58;;;18.68;85.17
70488;BME280;57976;48.174;16.370;2023-06-24T00:50:41;99563.80;;;18.66;85.20
70488;BME280;57976;48.174;16.370;2023-06-24T00:52:46;99564.51;;;18.66;85.51
70488;BME280;57976;48.174;16.370;2023-06-24T00:54:51;99576.16;;;18.66;85.60
70488;BME280;57976;48.174;16.370;2023-06-24T00:56:59;99567.41;;;18.65;85.61
70488;BME280;57976;48.174;16.370;2023-06-24T00:59:04;99555.52;;;18.64;85.57
70488;BME280;57976;48.174;16.370;2023-06-24T01:01:11;99556.92;;;18.65;85.84
70488;BME280;57976;48.174;16.370;2023-06-24T01:05:47;99555.29;;;18.67;85.93
70488;BME280;57976;48.174;16.370;2023-06-24T01:07:53;99561.30;;;18.65;86.02
70488;BME280;57976;48.174;16.370;2023-06-24T01:09:59;99573.88;;;18.65;86.07
70488;BME280;57976;48.174;16.370;2023-06-24T01:12:06;99564.98;;;18.62;86.08
70488;BME280;57976;48.174;16.370;2023-06-24T01:14:11;99564.33;;;18.62;86.36
70488;BME280;57976;48.174;16.370;2023-06-24T01:16:22;99567.30;;;18.62;86.49
70488;BME280;57976;48.174;16.370;2023-06-24T01:18:36;99568.99;;;18.60;86.49
70488;BME280;57976;48.174;16.370;2023-06-24T01:20:47;99574.56;;;18.60;86.56
70488;BME280;57976;48.174;16.370;2023-06-24T01:23:33;99573.60;;;18.60;86.94
70488;BME280;57976;48.174;16.370;2023-06-24T01:25:57;99572.08;;;18.60;87.01
70488;BME280;57976;48.174;16.370;2023-06-24T01:28:19;99567.88;;;18.60;87.26
70488;BME280;57976;48.174;16.370;2023-06-24T01:33:07;99577.84;;;18.60;87.53
70488;BME280;57976;48.174;16.370;2023-06-24T01:35:19;99573.41;;;18.56;88.01
70488;BME280;57976;48.174;16.370;2023-06-24T01:37:42;99575.34;;;18.55;87.97
70488;BME280;57976;48.174;16.370;2023-06-24T01:40:00;99570.74;;;18.55;88.16
70488;BME280;57976;48.174;16.370;2023-06-24T01:42:10;99571.94;;;18.54;88.44
70488;BME280;57976;48.174;16.370;2023-06-24T01:44:17;99580.66;;;18.54;88.81
70488;BME280;57976;48.174;16.370;2023-06-24T01:46:25;99583.35;;;18.53;88.79
70488;BME280;57976;48.174;16.370;2023-06-24T01:48:36;99593.83;;;18.50;88.90
70488;BME280;57976;48.174;16.370;2023-06-24T01:50:51;99590.27;;;18.51;88.98
70488;BME280;57976;48.174;16.370;2023-06-24T01:52:59;99602.15;;;18.51;89.35
70488;BME280;57976;48.174;16.370;2023-06-24T01:55:09;99593.35;;;18.51;89.24
70488;BME280;57976;48.174;16.370;2023-06-24T01:57:17;99592.41;;;18.49;89.54
70488;BME280;57976;48.174;16.370;2023-06-24T01:59:26;99599.83;;;18.51;89.61
70488;BME280;57976;48.174;16.370;2023-06-24T02:01:40;99608.16;;;18.51;89.76
70488;BME280;57976;48.174;16.370;2023-06-24T02:03:47;99593.44;;;18.49;89.78
70488;BME280;57976;48.174;16.370;2023-06-24T02:05:54;99605.34;;;18.48;90.17
70488;BME280;57976;48.174;16.370;2023-06-24T02:08:00;99594.06;;;18.48;90.04
70488;BME280;57976;48.174;16.370;2023-06-24T02:10:09;99597.34;;;18.47;90.18
70488;BME280;57976;48.174;16.370;2023-06-24T02:12:14;99589.75;;;18.45;90.03
70488;BME280;57976;48.174;16.370;2023-06-24T02:14:24;99589.33;;;18.46;90.06
70488;BME280;57976;48.174;16.370;2023-06-24T02:16:30;99587.30;;;18.47;90.36
70488;BME280;57976;48.174;16.370;2023-06-24T02:18:39;99588.82;;;18.48;90.44
70488;BME280;57976;48.174;16.370;2023-06-24T02:20:50;99590.70;;;18.47;90.45
70488;BME280;57976;48.174;16.370;2023-06-24T02:22:56;99585.31;;;18.43;90.77
70488;BME280;57976;48.174;16.370;2023-06-24T02:25:09;99577.26;;;18.41;91.00
70488;BME280;57976;48.174;16.370;2023-06-24T02:27:14;99588.51;;;18.39;91.39
70488;BME280;57976;48.174;16.370;2023-06-24T02:29:23;99583.41;;;18.36;91.56
70488;BME280;57976;48.174;16.370;2023-06-24T02:31:30;99587.83;;;18.34;91.89
70488;BME280;57976;48.174;16.370;2023-06-24T02:33:35;99587.10;;;18.33;92.44
70488;BME280;57976;48.174;16.370;2023-06-24T02:35:40;99591.04;;;18.30;92.89
70488;BME280;57976;48.174;16.370;2023-06-24T02:37:45;99583.18;;;18.27;92.91
70488;BME280;57976;48.174;16.370;2023-06-24T02:39:56;99591.91;;;18.27;93.25
70488;BME280;57976;48.174;16.370;2023-06-24T02:42:02;99582.70;;;18.25;93.47
70488;BME280;57976;48.174;16.370;2023-06-24T02:44:07;99578.83;;;18.22;93.41
70488;BME280;57976;48.174;16.370;2023-06-24T02:46:13;99578.89;;;18.21;93.63
70488;BME280;57976;48.174;16.370;2023-06-24T02:48:22;99582.02;;;18.20;93.94
70488;BME280;57976;48.174;16.370;2023-06-24T02:50:29;99571.50;;;18.20;94.09
70488;BME280;57976;48.174;16.370;2023-06-24T02:52:37;99578.77;;;18.19;94.11
70488;BME280;57976;48.174;16.370;2023-06-24T02:54:47;99577.58;;;18.19;93.98
70488;BME280;57976;48.174;16.370;2023-06-24T02:57:06;99594.75;;;18.19;94.41
70488;BME280;57976;48.174;16.370;2023-06-24T02:59:32;99592.45;;;18.18;94.92
70488;BME280;57976;48.174;16.370;2023-06-24T03:01:40;99597.98;;;18.16;95.18
70488;BME280;57976;48.174;16.370;2023-06-24T03:03:48;99605.01;;;18.15;95.52
70488;BME280;57976;48.174;16.370;2023-06-24T03:05:55;99611.02;;;18.13;95.28
70488;BME280;57976;48.174;16.370;2023-06-24T03:08:00;99609.48;;;18.12;95.99
70488;BME280;57976;48.174;16.370;2023-06-24T03:10:17;99601.21;;;18.11;96.34
70488;BME280;57976;48.174;16.370;2023-06-24T03:12:23;99598.77;;;18.06;96.92
70488;BME280;57976;48.174;16.370;2023-06-24T03:14:28;99588.95;;;18.04;96.96
70488;BME280;57976;48.174;16.370;2023-06-24T03:16:33;99585.39;;;18.00;96.99
70488;BME280;57976;48.174;16.370;2023-06-24T03:18:43;99593.52;;;17.99;97.81
70488;BME280;57976;48.174;16.370;2023-06-24T03:20:50;99599.49;;;17.99;98.15
70488;BME280;57976;48.174;16.370;2023-06-24T03:22:57;99604.02;;;17.96;99.10
70488;BME280;57976;48.174;16.370;2023-06-24T03:25:02;99599.64;;;17.95;98.27
70488;BME280;57976;48.174;16.370;2023-06-24T03:27:09;99598.35;;;17.95;98.03
70488;BME280;57976;48.174;16.370;2023-06-24T03:29:16;99608.55;;;17.96;98.41
70488;BME280;57976;48.174;16.370;2023-06-24T03:31:43;99624.41;;;17.96;99.26
70488;BME280;57976;48.174;16.370;2023-06-24T03:33:51;99618.59;;;17.94;99.45
70488;BME280;57976;48.174;16.370;2023-06-24T03:35:57;99629.67;;;17.90;99.96
70488;BME280;57976;48.174;16.370;2023-06-24T03:38:06;99628.44;;;17.84;100.00
70488;BME280;57976;48.174;16.370;2023-06-24T03:40:12;99618.35;;;17.81;100.00
70488;BME280;57976;48.174;16.370;2023-06-24T03:42:17;99626.42;;;17.78;100.00
70488;BME280;57976;48.174;16.370;2023-06-24T03:44:24;99613.29;;;17.76;100.00
70488;BME280;57976;48.174;16.370;2023-06-24T03:46:29;99611.96;;;17.75;100.00
70488;BME280;57976;48.174;16.370;2023-06-24T03:48:34;99619.30;;;17.75;100.00
70488;BME280;57976;48.174;16.370;2023-06-24T03:50:39;99623.76;;;17.73;100.00
70488;BME280;57976;48.174;16.370;2023-06-24T03:52:48;99623.54;;;17.71;100.00
70488;BME280;57976;48.174;16.370;2023-06-24T03:54:53;99635.27;;;17.69;100.00
70488;BME280;57976;48.174;16.370;2023-06-24T03:56:58;99623.45;;;17.67;100.00
70488;BME280;57976;48.174;16.370;2023-06-24T03:59:03;99617.48;;;17.62;100.00
70488;BME280;57976;48.174;16.370;2023-06-24T04:01:10;99618.50;;;17.58;100.00
70488;BME280;57976;48.174;16.370;2023-06-24T04:03:21;99619.64;;;17.53;100.00
70488;BME280;57976;48.174;16.370;2023-06-24T04:05:26;99627.55;;;17.47;100.00
70488;BME280;57976;48.174;16.370;2023-06-24T04:07:31;99619.41;;;17.42;100.00
70488;BME280;57976;48.174;16.370;2023-06-24T04:09:45;99631.52;;;17.38;100.00
70488;BME280;57976;48.174;16.370;2023-06-24T04:11:50;99624.14;;;17.34;100.00
70488;BME280;57976;48.174;16.370;2023-06-24T04:13:55;99622.04;;;17.31;100.00
70488;BME280;57976;48.174;16.370;2023-06-24T04:16:01;99626.58;;;17.32;100.00
70488;BME280;57976;48.174;16.370;2023-06-24T04:18:07;99629.77;;;17.32;100.00
70488;BME280;57976;48.174;16.370;2023-06-24T04:20:13;99634.95;;;17.30;100.00
70488;BME280;57976;48.174;16.370;2023-06-24T04:22:18;99632.75;;;17.28;100.00
70488;BME280;57976;48.174;16.370;2023-06-24T04:24:23;99631.23;;;17.25;100.00
70488;BME280;57976;48.174;16.370;2023-06-24T04:26:28;99643.75;;;17.24;100.00
70488;BME280;57976;48.174;16.370;2023-06-24T04:28:36;99635.55;;;17.24;100.00
70488;BME280;57976;48.174;16.370;2023-06-24T04:30:41;99633.83;;;17.24;100.00
70488;BME280;57976;48.174;16.370;2023-06-24T04:32:47;99639.84;;;17.25;100.00
70488;BME280;57976;48.174;16.370;2023-06-24T04:34:52;99644.60;;;17.23;100.00
70488;BME280;57976;48.174;16.370;2023-06-24T04:36:57;99652.20;;;17.21;100.00
70488;BME280;57976;48.174;16.370;2023-06-24T04:39:02;99649.17;;;17.18;100.00
70488;BME280;57976;48.174;16.370;2023-06-24T04:41:08;99647.30;;;17.17;100.00
70488;BME280;57976;48.174;16.370;2023-06-24T04:43:13;99658.33;;;17.18;100.00
70488;BME280;57976;48.174;16.370;2023-06-24T04:45:21;99657.70;;;17.17;100.00
70488;BME280;57976;48.174;16.370;2023-06-24T04:47:29;99659.99;;;17.16;100.00
70488;BME280;57976;48.174;16.370;2023-06-24T04:49:34;99663.92;;;17.16;100.00
70488;BME280;57976;48.174;16.370;2023-06-24T04:51:39;99657.47;;;17.16;100.00
70488;BME280;57976;48.174;16.370;2023-06-24T04:53:47;99659.29;;;17.16;100.00
70488;BME280;57976;48.174;16.370;2023-06-24T04:55:56;99653.85;;;17.16;100.00
70488;BME280;57976;48.174;16.370;2023-06-24T04:58:01;99662.94;;;17.18;100.00
70488;BME280;57976;48.174;16.370;2023-06-24T05:00:08;99677.02;;;17.16;100.00
70488;BME280;57976;48.174;16.370;2023-06-24T05:02:13;99661.92;;;17.15;100.00
70488;BME280;57976;48.174;16.370;2023-06-24T05:04:19;99669.73;;;17.18;100.00
70488;BME280;57976;48.174;16.370;2023-06-24T05:06:24;99673.29;;;17.20;100.00
70488;BME280;57976;48.174;16.370;2023-06-24T05:08:30;99675.70;;;17.22;100.00
70488;BME280;57976;48.174;16.370;2023-06-24T05:10:35;99687.56;;;17.25;100.00
70488;BME280;57976;48.174;16.370;2023-06-24T05:12:41;99685.60;;;17.27;100.00
70488;BME280;57976;48.174;16.370;2023-06-24T05:14:51;99678.25;;;17.28;100.00
70488;BME280;57976;48.174;16.370;2023-06-24T05:16:56;99677.59;;;17.32;100.00
70488;BME280;57976;48.174;16.370;2023-06-24T05:19:02;99688.77;;;17.36;100.00
70488;BME280;57976;48.174;16.370;2023-06-24T05:21:11;99682.64;;;17.41;100.00
70488;BME280;57976;48.174;16.370;2023-06-24T05:23:16;99689.05;;;17.44;100.00
70488;BME280;57976;48.174;16.370;2023-06-24T05:25:21;99690.15;;;17.45;100.00
70488;BME280;57976;48.174;16.370;2023-06-24T05:27:26;99691.66;;;17.45;100.00
70488;BME280;57976;48.174;16.370;2023-06-24T05:29:31;99698.36;;;17.48;100.00
70488;BME280;57976;48.174;16.370;2023-06-24T05:31:36;99699.34;;;17.50;100.00
70488;BME280;57976;48.174;16.370;2023-06-24T05:33:41;99708.58;;;17.51;100.00
70488;BME280;57976;48.174;16.370;2023-06-24T05:35:46;99712.42;;;17.54;100.00
70488;BME280;57976;48.174;16.370;2023-06-24T05:37:51;99715.75;;;17.56;100.00
70488;BME280;57976;48.174;16.370;2023-06-24T05:39:59;99724.52;;;17.57;100.00
70488;BME280;57976;48.174;16.370;2023-06-24T05:42:05;99725.55;;;17.58;100.00
70488;BME280;57976;48.174;16.370;2023-06-24T05:44:11;99734.14;;;17.58;100.00
70488;BME280;57976;48.174;16.370;2023-06-24T05:46:16;99744.61;;;17.57;100.00
70488;BME280;57976;48.174;16.370;2023-06-24T05:48:21;99739.28;;;17.54;100.00
70488;BME280;57976;48.174;16.370;2023-06-24T05:50:29;99747.10;;;17.49;100.00
70488;BME280;57976;48.174;16.370;2023-06-24T05:52:34;99743.58;;;17.44;100.00
70488;BME280;57976;48.174;16.370;2023-06-24T05:54:39;99734.27;;;17.39;100.00
70488;BME280;57976;48.174;16.370;2023-06-24T05:56:44;99737.44;;;17.37;100.00
70488;BME280;57976;48.174;16.370;2023-06-24T05:58:49;99734.66;;;17.38;100.00
70488;BME280;57976;48.174;16.370;2023-06-24T06:00:54;99734.82;;;17.43;100.00
70488;BME280;57976;48.174;16.370;2023-06-24T06:03:09;99737.79;;;17.51;100.00
70488;BME280;57976;48.174;16.370;2023-06-24T06:05:15;99741.66;;;17.58;100.00
70488;BME280;57976;48.174;16.370;2023-06-24T06:07:23;99745.13;;;17.63;100.00
70488;BME280;57976;48.174;16.370;2023-06-24T06:09:28;99746.88;;;17.67;100.00
70488;BME280;57976;48.174;16.370;2023-06-24T06:11:33;99756.34;;;17.68;100.00
70488;BME280;57976;48.174;16.370;2023-06-24T06:13:38;99756.95;;;17.62;100.00
70488;BME280;57976;48.174;16.370;2023-06-24T06:15:43;99757.98;;;17.57;100.00
70488;BME280;57976;48.174;16.370;2023-06-24T06:17:48;99765.06;;;17.56;100.00
70488;BME280;57976;48.174;16.370;2023-06-24T06:19:57;99771.86;;;17.54;100.00
70488;BME280;57976;48.174;16.370;2023-06-24T06:22:03;99784.11;;;17.49;100.00
70488;BME280;57976;48.174;16.370;2023-06-24T06:24:11;99788.56;;;17.44;100.00
70488;BME280;57976;48.174;16.370;2023-06-24T06:26:16;99779.95;;;17.35;100.00
70488;BME280;57976;48.174;16.370;2023-06-24T06:28:24;99785.48;;;17.32;100.00
70488;BME280;57976;48.174;16.370;2023-06-24T06:30:29;99787.98;;;17.31;100.00
70488;BME280;57976;48.174;16.370;2023-06-24T06:32:34;99787.14;;;17.29;100.00
70488;BME280;57976;48.174;16.370;2023-06-24T06:34:40;99782.42;;;17.26;100.00
70488;BME280;57976;48.174;16.370;2023-06-24T06:36:45;99791.07;;;17.27;100.00
70488;BME280;57976;48.174;16.370;2023-06-24T06:38:50;99786.35;;;17.28;100.00
70488;BME280;57976;48.174;16.370;2023-06-24T06:40:55;99788.17;;;17.27;100.00
70488;BME280;57976;48.174;16.370;2023-06-24T06:43:00;99797.36;;;17.26;100.00
70488;BME280;57976;48.174;16.370;2023-06-24T06:45:08;99801.99;;;17.20;100.00
70488;BME280;57976;48.174;16.370;2023-06-24T06:47:13;99790.64;;;17.11;100.00
70488;BME280;57976;48.174;16.370;2023-06-24T06:49:19;99791.86;;;17.09;100.00
70488;BME280;57976;48.174;16.370;2023-06-24T06:51:24;99790.52;;;17.10;100.00
70488;BME280;57976;48.174;16.370;2023-06-24T06:53:29;99793.23;;;17.10;100.00
70488;BME280;57976;48.174;16.370;2023-06-24T06:55:34;99792.96;;;17.08;100.00
70488;BME280;57976;48.174;16.370;2023-06-24T06:57:39;99791.46;;;17.06;100.00
70488;BME280;57976;48.174;16.370;2023-06-24T06:59:44;99791.25;;;17.04;100.00
70488;BME280;57976;48.174;16.370;2023-06-24T07:01:49;99790.40;;;17.03;100.00
70488;BME280;57976;48.174;16.370;2023-06-24T07:03:54;99789.58;;;17.02;100.00
70488;BME280;57976;48.174;16.370;2023-06-24T07:05:59;99792.05;;;17.06;100.00
70488;BME280;57976;48.174;16.370;2023-06-24T07:08:05;99788.79;;;17.09;100.00
70488;BME280;57976;48.174;16.370;2023-06-24T07:10:16;99795.75;;;17.12;100.00
70488;BME280;57976;48.174;16.370;2023-06-24T07:12:21;99800.01;;;17.16;100.00
70488;BME280;57976;48.174;16.370;2023-06-24T07:14:26;99804.11;;;17.18;100.00
70488;BME280;57976;48.174;16.370;2023-06-24T07:16:31;99806.11;;;17.22;100.00
70488;BME280;57976;48.174;16.370;2023-06-24T07:18:37;99809.67;;;17.26;100.00
70488;BME280;57976;48.174;16.370;2023-06-24T07:20:42;99812.80;;;17.31;100.00
70488;BME280;57976;48.174;16.370;2023-06-24T07:22:49;99808.83;;;17.36;100.00
70488;BME280;57976;48.174;16.370;2023-06-24T07:24:54;99807.88;;;17.40;100.00
70488;BME280;57976;48.174;16.370;2023-06-24T07:26:59;99810.39;;;17.46;100.00
70488;BME280;57976;48.174;16.370;2023-06-24T07:29:09;99811.21;;;17.49;100.00
70488;BME280;57976;48.174;16.370;2023-06-24T07:31:14;99814.98;;;17.54;100.00
70488;BME280;57976;48.174;16.370;2023-06-24T07:33:20;99815.05;;;17.59;100.00
70488;BME280;57976;48.174;16.370;2023-06-24T07:35:28;99807.16;;;17.65;100.00
70488;BME280;57976;48.174;16.370;2023-06-24T07:37:35;99809.54;;;17.73;100.00
70488;BME280;57976;48.174;16.370;2023-06-24T07:39:40;99810.46;;;17.81;100.00
70488;BME280;57976;48.174;16.370;2023-06-24T07:41:45;99808.80;;;17.86;100.00
70488;BME280;57976;48.174;16.370;2023-06-24T07:43:50;99811.51;;;17.91;100.00
70488;BME280;57976;48.174;16.370;2023-06-24T07:45:55;99812.51;;;17.98;100.00
70488;BME280;57976;48.174;16.370;2023-06-24T07:48:01;99816.17;;;18.00;100.00
70488;BME280;57976;48.174;16.370;2023-06-24T07:50:06;99810.20;;;18.05;100.00
70488;BME280;57976;48.174;16.370;2023-06-24T07:52:12;99813.29;;;18.11;100.00
70488;BME280;57976;48.174;16.370;2023-06-24T07:54:17;99812.41;;;18.17;100.00
70488;BME280;57976;48.174;16.370;2023-06-24T07:56:22;99817.34;;;18.21;100.00
70488;BME280;57976;48.174;16.370;2023-06-24T07:58:27;99828.67;;;18.24;100.00
70488;BME280;57976;48.174;16.370;2023-06-24T08:00:35;99820.69;;;18.24;100.00
70488;BME280;57976;48.174;16.370;2023-06-24T08:02:43;99824.67;;;18.26;100.00
70488;BME280;57976;48.174;16.370;2023-06-24T08:04:48;99843.33;;;18.28;100.00
70488;BME280;57976;48.174;16.370;2023-06-24T08:06:55;99837.15;;;18.25;99.84
70488;BME280;57976;48.174;16.370;2023-06-24T08:09:00;99830.29;;;18.21;99.89
70488;BME280;57976;48.174;16.370;2023-06-24T08:11:05;99831.80;;;18.21;99.96
70488;BME280;57976;48.174;16.370;2023-06-24T08:13:13;99838.68;;;18.21;99.63
70488;BME280;57976;48.174;16.370;2023-06-24T08:15:20;99840.36;;;18.18;99.67
70488;BME280;57976;48.174;16.370;2023-06-24T08:17:25;99847.75;;;18.16;99.23
70488;BME280;57976;48.174;16.370;2023-06-24T08:19:30;99846.88;;;18.10;99.81
70488;BME280;57976;48.174;16.370;2023-06-24T08:21:35;99856.66;;;18.04;99.98
70488;BME280;57976;48.174;16.370;2023-06-24T08:23:40;99859.89;;;17.99;100.00
70488;BME280;57976;48.174;16.370;2023-06-24T08:25:45;99862.23;;;17.96;100.00
70488;BME280;57976;48.174;16.370;2023-06-24T08:27:56;99856.38;;;17.92;100.00
70488;BME280;57976;48.174;16.370;2023-06-24T08:30:02;99858.44;;;17.90;100.00
70488;BME280;57976;48.174;16.370;2023-06-24T08:32:10;99864.56;;;17.91;100.00
70488;BME280;57976;48.174;16.370;2023-06-24T08:34:15;99861.58;;;17.93;100.00
70488;BME280;57976;48.174;16.370;2023-06-24T08:36:22;99868.06;;;17.95;100.00
70488;BME280;57976;48.174;16.370;2023-06-24T08:38:27;99863.19;;;17.94;100.00
70488;BME280;57976;48.174;16.370;2023-06-24T08:40:33;99867.98;;;17.92;100.00
70488;BME280;57976;48.174;16.370;2023-06-24T08:42:44;99866.11;;;17.90;100.00
70488;BME280;57976;48.174;16.370;2023-06-24T08:44:53;99860.12;;;17.90;100.00
70488;BME280;57976;48.174;16.370;2023-06-24T08:47:02;99864.38;;;17.92;100.00
70488;BME280;57976;48.174;16.370;2023-06-24T08:49:16;99867.14;;;17.93;100.00
70488;BME280;57976;48.174;16.370;2023-06-24T08:51:24;99859.30;;;17.94;100.00
70488;BME280;57976;48.174;16.370;2023-06-24T08:53:32;99868.01;;;17.96;100.00
70488;BME280;57976;48.174;16.370;2023-06-24T08:55:45;99874.64;;;17.96;100.00
70488;BME280;57976;48.174;16.370;2023-06-24T08:57:51;99871.81;;;17.94;100.00
70488;BME280;57976;48.174;16.370;2023-06-24T08:59:56;99869.48;;;17.92;100.00
70488;BME280;57976;48.174;16.370;2023-06-24T09:02:07;99870.11;;;17.94;100.00
70488;BME280;57976;48.174;16.370;2023-06-24T09:04:15;99873.59;;;17.96;100.00
70488;BME280;57976;48.174;16.370;2023-06-24T09:06:20;99872.31;;;18.00;100.00
70488;BME280;57976;48.174;16.370;2023-06-24T09:08:28;99880.45;;;18.04;100.00
70488;BME280;57976;48.174;16.370;2023-06-24T09:10:37;99884.67;;;18.07;100.00
70488;BME280;57976;48.174;16.370;2023-06-24T09:12:43;99884.77;;;18.07;100.00
70488;BME280;57976;48.174;16.370;2023-06-24T09:14:50;99879.35;;;18.06;100.00
70488;BME280;57976;48.174;16.370;2023-06-24T09:17:02;99891.40;;;18.04;100.00
70488;BME280;57976;48.174;16.370;2023-06-24T09:19:10;99886.56;;;18.03;100.00
70488;BME280;57976;48.174;16.370;2023-06-24T09:21:22;99882.70;;;18.04;100.00
70488;BME280;57976;48.174;16.370;2023-06-24T09:23:28;99878.54;;;18.05;100.00
70488;BME280;57976;48.174;16.370;2023-06-24T09:25:34;99884.25;;;18.08;100.00
70488;BME280;57976;48.174;16.370;2023-06-24T09:27:40;99890.67;;;18.10;100.00
70488;BME280;57976;48.174;16.370;2023-06-24T09:29:45;99884.84;;;18.11;100.00
70488;BME280;57976;48.174;16.370;2023-06-24T09:31:50;99883.20;;;18.14;100.00
70488;BME280;57976;48.174;16.370;2023-06-24T09:33:59;99886.42;;;18.18;100.00
70488;BME280;57976;48.174;16.370;2023-06-24T09:36:05;99883.94;;;18.20;100.00
70488;BME280;57976;48.174;16.370;2023-06-24T09:38:19;99887.33;;;18.25;100.00
70488;BME280;57976;48.174;16.370;2023-06-24T09:40:37;99891.34;;;18.28;100.00
70488;BME280;57976;48.174;16.370;2023-06-24T09:42:51;99896.19;;;18.30;100.00
70488;BME280;57976;48.174;16.370;2023-06-24T09:44:56;99893.75;;;18.30;100.00
70488;BME280;57976;48.174;16.370;2023-06-24T09:47:01;99892.21;;;18.28;100.00
70488;BME280;57976;48.174;16.370;2023-06-24T09:49:10;99897.11;;;18.28;100.00
70488;BME280;57976;48.174;16.370;2023-06-24T09:51:17;99895.64;;;18.27;100.00
70488;BME280;57976;48.174;16.370;2023-06-24T09:53:24;99893.20;;;18.25;100.00
70488;BME280;57976;48.174;16.370;2023-06-24T09:55:30;99891.19;;;18.21;100.00
70488;BME280;57976;48.174;16.370;2023-06-24T09:57:36;99888.63;;;18.18;100.00
70488;BME280;57976;48.174;16.370;2023-06-24T09:59:44;99890.31;;;18.16;100.00
70488;BME280;57976;48.174;16.370;2023-06-24T10:01:49;99892.48;;;18.14;100.00
70488;BME280;57976;48.174;16.370;2023-06-24T10:03:57;99891.96;;;18.12;100.00
70488;BME280;57976;48.174;16.370;2023-06-24T10:06:03;99885.46;;;18.11;100.00
70488;BME280;57976;48.174;16.370;2023-06-24T10:08:10;99882.83;;;18.14;100.00
70488;BME280;57976;48.174;16.370;2023-06-24T10:10:21;99884.30;;;18.20;100.00
70488;BME280;57976;48.174;16.370;2023-06-24T10:12:26;99880.02;;;18.24;100.00
70488;BME280;57976;48.174;16.370;2023-06-24T10:14:31;99884.16;;;18.25;100.00
70488;BME280;57976;48.174;16.370;2023-06-24T10:16:37;99887.09;;;18.26;100.00
70488;BME280;57976;48.174;16.370;2023-06-24T10:18:43;99881.39;;;18.25;100.00
70488;BME280;57976;48.174;16.370;2023-06-24T10:20:51;99882.70;;;18.28;100.00
70488;BME280;57976;48.174;16.370;2023-06-24T10:22:59;99886.41;;;18.27;100.00
70488;BME280;57976;48.174;16.370;2023-06-24T10:25:12;99885.27;;;18.26;100.00
70488;BME280;57976;48.174;16.370;2023-06-24T10:27:19;99883.90;;;18.24;100.00
70488;BME280;57976;48.174;16.370;2023-06-24T10:29:33;99884.66;;;18.21;100.00
70488;BME280;57976;48.174;16.370;2023-06-24T10:31:58;99888.81;;;18.19;100.00
70488;BME280;57976;48.174;16.370;2023-06-24T10:34:21;99894.40;;;18.15;100.00
70488;BME280;57976;48.174;16.370;2023-06-24T10:36:34;99898.06;;;18.08;100.00
70488;BME280;57976;48.174;16.370;2023-06-24T10:38:41;99891.45;;;18.00;100.00
70488;BME280;57976;48.174;16.370;2023-06-24T10:40:48;99889.98;;;17.99;100.00
70488;BME280;57976;48.174;16.370;2023-06-24T10:42:53;99890.10;;;17.98;100.00
70488;BME280;57976;48.174;16.370;2023-06-24T10:45:12;99880.41;;;17.93;100.00
70488;BME280;57976;48.174;16.370;2023-06-24T10:47:21;99872.86;;;17.89;100.00
70488;BME280;57976;48.174;16.370;2023-06-24T10:49:26;99871.80;;;17.87;100.00
70488;BME280;57976;48.174;16.370;2023-06-24T10:51:32;99881.77;;;17.87;100.00
70488;BME280;57976;48.174;16.370;2023-06-24T10:53:37;99880.49;;;17.86;100.00
70488;BME280;57976;48.174;16.370;2023-06-24T10:55:42;99875.54;;;17.85;100.00
70488;BME280;57976;48.174;16.370;2023-06-24T10:57:48;99876.87;;;17.82;100.00
70488;BME280;57976;48.174;16.370;2023-06-24T10:59:54;99867.04;;;17.82;100.00
70488;BME280;57976;48.174;16.370;2023-06-24T11:01:59;99871.83;;;17.86;100.00
70488;BME280;57976;48.174;16.370;2023-06-24T11:04:08;99871.08;;;17.91;100.00